Time;durP1;ratioP1;P1;durP2;ratioP2;P2;SDS_P1;SDS_P2;PMS_P1;PMS_P2;Temp;Humidity;BMP_temperature;BMP_pressure;BME280_temperature;BME280_humidity;BME280_pressure;Samples;Min_cycle;Max_cycle;Signal;HPM_P1;HPM_P2
2022/05/23 00:02:12;;;;;;;0.70;0.60;;;17.50;99.90;;;;;;5060465;28;20185;-82
2022/05/23 00:04:38;;;;;;;0.50;0.50;;;17.50;99.90;;;;;;5058925;28;20655;-82
2022/05/23 00:07:23;;;;;;;0.67;0.43;;;17.50;99.90;;;;;;5059106;28;20206;-82
2022/05/23 00:09:52;;;;;;;0.87;0.40;;;17.60;99.90;;;;;;5042268;28;20205;-82
2022/05/23 00:12:18;;;;;;;0.30;0.30;;;17.60;99.90;;;;;;5058554;28;20197;-82
2022/05/23 00:14:44;;;;;;;0.73;0.60;;;17.60;99.90;;;;;;5038710;28;20244;-82
2022/05/23 00:17:13;;;;;;;0.30;0.30;;;17.60;99.90;;;;;;5041052;28;20209;-82
2022/05/23 00:19:39;;;;;;;0.37;0.37;;;17.70;99.90;;;;;;5038123;28;20204;-82
2022/05/23 00:22:05;;;;;;;0.30;0.30;;;17.70;99.90;;;;;;5043365;28;20185;-82
2022/05/23 00:24:31;;;;;;;0.90;0.43;;;17.80;99.90;;;;;;5073407;28;20276;-82
2022/05/23 00:26:57;;;;;;;0.40;0.40;;;17.90;99.90;;;;;;5040113;28;20219;-82
2022/05/23 00:29:23;;;;;;;0.60;0.30;;;18.10;99.90;;;;;;5057702;28;20185;-82
2022/05/23 00:37:20;;;;;;;0.37;0.37;;;18.10;99.90;;;;;;5060300;28;20215;-82
2022/05/23 00:39:45;;;;;;;0.20;0.20;;;18.00;99.90;;;;;;5058386;28;20249;-82
2022/05/23 00:44:58;;;;;;;0.30;0.30;;;17.80;99.90;;;;;;5056855;28;20199;-82
2022/05/23 00:47:26;;;;;;;1.43;0.40;;;17.80;99.90;;;;;;5058648;28;20730;-82
2022/05/23 00:49:52;;;;;;;0.30;0.30;;;17.80;99.90;;;;;;5041444;28;20220;-82
2022/05/23 00:52:24;;;;;;;0.30;0.30;;;17.80;99.90;;;;;;5059377;28;20213;-82
2022/05/23 00:54:51;;;;;;;0.30;0.30;;;17.90;99.90;;;;;;5057863;28;20204;-82
2022/05/23 00:57:21;;;;;;;0.40;0.40;;;17.80;99.90;;;;;;5040949;28;20810;-83
2022/05/23 00:59:48;;;;;;;0.63;0.23;;;17.80;99.90;;;;;;5058550;28;20209;-83
2022/05/23 01:02:14;;;;;;;1.50;0.50;;;17.80;99.90;;;;;;5057560;28;20469;-82
2022/05/23 01:04:41;;;;;;;0.53;0.30;;;17.80;99.90;;;;;;5057918;28;20185;-82
2022/05/23 01:07:07;;;;;;;0.20;0.20;;;17.80;99.90;;;;;;5041661;28;20274;-83
2022/05/23 01:09:34;;;;;;;0.40;0.40;;;17.90;99.90;;;;;;5038125;28;20209;-82
2022/05/23 01:12:00;;;;;;;0.23;0.23;;;17.90;99.90;;;;;;5058039;28;20538;-82
2022/05/23 01:14:43;;;;;;;0.17;0.17;;;17.90;99.90;;;;;;5057138;28;20174;-82
2022/05/23 01:17:09;;;;;;;0.27;0.27;;;18.00;99.90;;;;;;5059364;28;20209;-82
2022/05/23 01:19:34;;;;;;;0.50;0.43;;;17.90;99.90;;;;;;5038694;28;20298;-83
2022/05/23 01:22:07;;;;;;;0.80;0.40;;;17.80;99.90;;;;;;5059246;28;20719;-82
2022/05/23 01:24:52;;;;;;;0.20;0.20;;;17.80;99.90;;;;;;5073281;28;20189;-82
2022/05/23 01:27:18;;;;;;;3.17;0.67;;;17.80;99.90;;;;;;5055976;28;20212;-83
2022/05/23 01:29:45;;;;;;;0.70;0.70;;;17.80;99.90;;;;;;5057594;28;20685;-82
2022/05/23 01:32:11;;;;;;;0.20;0.20;;;17.70;99.90;;;;;;5057524;28;20185;-82
2022/05/23 01:34:37;;;;;;;0.20;0.20;;;17.60;99.90;;;;;;5040194;28;20186;-82
2022/05/23 01:37:03;;;;;;;0.30;0.30;;;17.60;99.90;;;;;;5056638;28;20255;-82
2022/05/23 01:39:29;;;;;;;0.83;0.30;;;17.50;99.90;;;;;;5041553;28;20239;-82
2022/05/23 01:41:55;;;;;;;0.73;0.37;;;17.50;99.90;;;;;;5056350;28;20212;-82
2022/05/23 01:44:21;;;;;;;0.47;0.47;;;17.50;99.90;;;;;;5072481;28;20181;-82
2022/05/23 01:46:46;;;;;;;0.30;0.30;;;17.50;99.90;;;;;;5057156;28;20205;-82
2022/05/23 01:49:12;;;;;;;0.10;0.10;;;17.50;99.90;;;;;;5057975;28;20282;-82
2022/05/23 01:51:37;;;;;;;0.27;0.27;;;17.50;99.90;;;;;;5039613;28;20185;-83
2022/05/23 01:54:03;;;;;;;0.20;0.20;;;17.40;99.90;;;;;;5036236;28;20199;-82
2022/05/23 01:56:29;;;;;;;0.40;0.40;;;17.40;99.90;;;;;;5056361;28;20274;-82
2022/05/23 02:01:38;;;;;;;0.30;0.30;;;17.30;99.90;;;;;;5057215;28;20180;-82
2022/05/23 02:04:04;;;;;;;0.93;0.40;;;17.30;99.90;;;;;;5037680;28;20193;-83
2022/05/23 02:06:30;;;;;;;0.40;0.40;;;17.30;99.90;;;;;;5038581;28;20236;-82
2022/05/23 02:08:55;;;;;;;0.73;0.67;;;17.30;99.90;;;;;;5037697;28;20197;-82
2022/05/23 02:11:21;;;;;;;0.33;0.33;;;17.20;99.90;;;;;;5058017;28;20260;-82
2022/05/23 02:13:46;;;;;;;0.30;0.30;;;17.20;99.90;;;;;;5052768;28;20189;-82
2022/05/23 02:16:12;;;;;;;0.17;0.17;;;17.20;99.90;;;;;;5056112;28;20193;-83
2022/05/23 02:18:38;;;;;;;0.40;0.40;;;17.20;99.90;;;;;;5037795;28;20252;-82
2022/05/23 02:21:04;;;;;;;0.20;0.20;;;17.20;99.90;;;;;;5053718;28;20185;-82
2022/05/23 02:23:29;;;;;;;0.20;0.20;;;17.20;99.90;;;;;;5070709;28;20248;-82
2022/05/23 02:25:55;;;;;;;0.53;0.50;;;17.20;99.90;;;;;;5055905;28;20231;-82
2022/05/23 02:28:20;;;;;;;0.27;0.27;;;17.20;99.90;;;;;;5039234;28;20213;-82
2022/05/23 02:30:47;;;;;;;0.30;0.30;;;17.20;99.90;;;;;;5040985;28;20548;-82
2022/05/23 02:33:13;;;;;;;0.40;0.40;;;17.10;99.90;;;;;;5056496;28;20188;-83
2022/05/23 02:35:39;;;;;;;0.40;0.40;;;17.20;99.90;;;;;;5038392;28;20189;-83
2022/05/23 02:38:05;;;;;;;0.20;0.20;;;17.20;99.90;;;;;;5056051;28;20213;-82
2022/05/23 02:40:31;;;;;;;0.40;0.40;;;17.20;99.90;;;;;;5054682;28;20239;-82
2022/05/23 02:42:56;;;;;;;0.40;0.40;;;17.10;99.90;;;;;;5056813;28;20189;-83
2022/05/23 02:45:22;;;;;;;0.70;0.70;;;17.20;99.90;;;;;;5037992;28;20189;-82
2022/05/23 02:47:47;;;;;;;0.30;0.30;;;17.10;99.90;;;;;;5057045;28;20284;-82
2022/05/23 02:50:13;;;;;;;0.20;0.20;;;17.20;99.90;;;;;;5056393;28;20186;-82
2022/05/23 02:52:40;;;;;;;0.37;0.37;;;17.20;99.90;;;;;;5055072;28;20671;-83
2022/05/23 02:55:07;;;;;;;0.47;0.47;;;17.10;99.90;;;;;;5037086;28;20284;-83
2022/05/23 02:57:32;;;;;;;0.20;0.20;;;17.20;99.90;;;;;;5038946;28;20551;-82
2022/05/23 02:59:59;;;;;;;0.40;0.40;;;17.20;99.90;;;;;;5037289;28;20217;-82
2022/05/23 03:05:10;;;;;;;0.20;0.20;;;17.20;99.90;;;;;;5056593;28;20546;-82
2022/05/23 03:07:36;;;;;;;0.20;0.20;;;17.20;99.90;;;;;;5056450;28;20205;-82
2022/05/23 03:10:02;;;;;;;0.90;0.40;;;17.20;99.90;;;;;;5055855;28;20221;-83
2022/05/23 03:12:28;;;;;;;0.30;0.30;;;17.20;99.90;;;;;;5058374;28;20639;-82
2022/05/23 03:14:54;;;;;;;0.10;0.10;;;17.30;99.90;;;;;;5060581;28;20582;-82
2022/05/23 03:17:19;;;;;;;0.40;0.37;;;17.30;99.90;;;;;;5057897;28;20209;-82
2022/05/23 03:19:45;;;;;;;0.50;0.50;;;17.30;99.90;;;;;;5075566;28;20217;-82
2022/05/23 03:27:42;;;;;;;0.40;0.40;;;17.40;99.90;;;;;;5059244;28;20716;-82
2022/05/23 03:30:08;;;;;;;0.43;0.20;;;17.50;99.90;;;;;;5040940;28;20193;-83
2022/05/23 03:32:34;;;;;;;0.40;0.40;;;17.40;99.90;;;;;;5042438;28;20192;-82
2022/05/23 03:35:00;;;;;;;0.30;0.30;;;17.50;99.90;;;;;;5039512;28;20195;-82
2022/05/23 03:37:26;;;;;;;0.17;0.17;;;17.60;99.90;;;;;;5039636;28;20244;-82
2022/05/23 03:39:51;;;;;;;0.30;0.30;;;17.70;99.90;;;;;;5040770;28;20229;-83
2022/05/23 03:42:17;;;;;;;0.30;0.30;;;17.80;99.90;;;;;;5060230;28;20635;-82
2022/05/23 03:44:43;;;;;;;2.57;2.47;;;17.90;99.90;;;;;;5039509;28;20181;-82
2022/05/23 03:47:09;;;;;;;0.10;0.10;;;18.00;99.90;;;;;;5040211;28;20204;-82
2022/05/23 03:49:34;;;;;;;0.30;0.30;;;18.10;99.90;;;;;;5039600;28;20676;-83
2022/05/23 03:52:00;;;;;;;0.70;0.47;;;18.10;99.90;;;;;;5040942;28;20741;-83
2022/05/23 03:54:26;;;;;;;0.20;0.20;;;18.30;99.90;;;;;;5057794;28;20215;-82
2022/05/23 03:56:51;;;;;;;0.93;0.63;;;18.40;99.90;;;;;;5052113;28;20225;-82
2022/05/23 03:59:17;;;;;;;0.63;0.40;;;18.50;99.90;;;;;;5055131;28;20209;-82
2022/05/23 04:01:42;;;;;;;0.50;0.40;;;18.30;99.90;;;;;;5040428;28;20210;-82
2022/05/23 04:04:08;;;;;;;0.30;0.30;;;18.40;99.90;;;;;;5039237;28;20189;-82
2022/05/23 04:06:35;;;;;;;0.20;0.20;;;18.50;99.90;;;;;;5040854;28;20200;-82
2022/05/23 04:09:01;;;;;;;0.27;0.27;;;18.60;99.90;;;;;;5039857;28;20202;-82
2022/05/23 04:11:27;;;;;;;0.10;0.10;;;18.50;99.90;;;;;;5056568;28;20190;-82
2022/05/23 04:13:52;;;;;;;0.60;0.40;;;18.60;99.90;;;;;;5056266;28;20248;-82
2022/05/23 04:16:18;;;;;;;0.40;0.40;;;18.70;99.90;;;;;;5040117;28;20181;-82
2022/05/23 04:18:43;;;;;;;0.73;0.30;;;18.70;99.90;;;;;;5037365;28;20583;-83
2022/05/23 04:21:09;;;;;;;0.70;0.70;;;18.20;99.90;;;;;;5040985;28;20557;-82
2022/05/23 04:23:35;;;;;;;0.40;0.40;;;17.90;99.90;;;;;;5038053;28;20189;-82
2022/05/23 04:26:09;;;;;;;0.60;0.60;;;17.90;99.90;;;;;;5039533;28;20177;-82
2022/05/23 04:28:36;;;;;;;1.07;0.60;;;17.90;99.90;;;;;;5037865;28;20174;-82
2022/05/23 04:31:02;;;;;;;0.30;0.30;;;18.10;99.90;;;;;;5056013;28;20181;-82
2022/05/23 04:36:12;;;;;;;0.20;0.20;;;18.30;99.90;;;;;;5056492;28;20239;-82
2022/05/23 04:38:38;;;;;;;0.70;0.70;;;18.40;99.90;;;;;;5041130;28;20173;-82
2022/05/23 04:41:06;;;;;;;0.37;0.37;;;18.50;99.90;;;;;;5041053;28;20182;-82
2022/05/23 04:43:32;;;;;;;0.30;0.30;;;18.40;99.90;;;;;;5037930;28;20545;-82
2022/05/23 04:45:57;;;;;;;1.47;0.60;;;18.40;99.90;;;;;;5058149;28;21308;-83
2022/05/23 04:51:07;;;;;;;0.40;0.40;;;18.30;99.90;;;;;;5059091;28;20197;-82
2022/05/23 04:53:33;;;;;;;0.67;0.67;;;18.30;99.90;;;;;;5038384;28;20185;-83
2022/05/23 04:56:00;;;;;;;0.63;0.63;;;17.70;99.90;;;;;;5059388;28;20224;-83
2022/05/23 04:58:26;;;;;;;0.50;0.47;;;17.50;99.90;;;;;;5057360;28;20209;-83
2022/05/23 05:00:53;;;;;;;0.40;0.40;;;17.60;99.90;;;;;;5040131;28;20185;-83
2022/05/23 05:03:19;;;;;;;0.40;0.40;;;17.30;99.90;;;;;;5056888;28;20190;-83
2022/05/23 05:05:45;;;;;;;0.70;0.57;;;17.30;99.90;;;;;;5040053;28;20200;-83
2022/05/23 05:08:12;;;;;;;0.50;0.50;;;17.40;99.90;;;;;;5040212;28;20224;-83
2022/05/23 05:10:37;;;;;;;0.40;0.40;;;17.20;99.90;;;;;;5057510;28;20666;-83
2022/05/23 05:13:03;;;;;;;0.33;0.33;;;17.30;99.90;;;;;;5039173;28;20185;-83
2022/05/23 05:15:29;;;;;;;0.50;0.50;;;17.30;99.90;;;;;;5040371;28;20240;-82
2022/05/23 05:17:55;;;;;;;0.60;0.50;;;17.30;99.90;;;;;;5037237;28;20583;-81
2022/05/23 05:20:21;;;;;;;0.57;0.57;;;17.40;99.90;;;;;;5058345;28;20209;-82
2022/05/23 05:22:47;;;;;;;0.30;0.30;;;17.50;99.90;;;;;;5035414;28;20181;-81
2022/05/23 05:25:14;;;;;;;0.30;0.30;;;17.40;99.90;;;;;;5051692;28;20185;-82
2022/05/23 05:27:40;;;;;;;0.50;0.50;;;17.30;99.90;;;;;;5055592;28;20197;-83
2022/05/23 05:30:09;;;;;;;0.33;0.33;;;17.20;99.90;;;;;;5056640;28;20327;-83
2022/05/23 05:32:36;;;;;;;0.40;0.30;;;17.10;99.90;;;;;;5054008;28;20201;-81
2022/05/23 05:35:46;;;;;;;0.40;0.40;;;16.90;99.90;;;;;;5050199;28;20184;-81
2022/05/23 05:38:16;;;;;;;0.50;0.50;;;16.60;99.90;;;;;;5038706;28;20248;-80
2022/05/23 05:40:46;;;;;;;2.80;1.00;;;16.20;99.90;;;;;;5052462;28;20261;-80
2022/05/23 05:43:18;;;;;;;0.90;0.90;;;16.20;99.90;;;;;;5035264;28;20196;-80
2022/05/23 05:45:52;;;;;;;1.13;0.63;;;16.30;99.90;;;;;;5034257;28;20292;-81
2022/05/23 05:48:19;;;;;;;0.50;0.50;;;16.00;99.90;;;;;;5053205;28;20200;-84
2022/05/23 05:50:46;;;;;;;0.50;0.50;;;15.60;99.90;;;;;;5035469;28;20856;-83
2022/05/23 05:53:20;;;;;;;0.43;0.43;;;15.50;99.90;;;;;;5051908;28;20271;-83
2022/05/23 05:55:46;;;;;;;0.30;0.30;;;15.60;99.90;;;;;;5052596;28;20188;-83
2022/05/23 05:58:12;;;;;;;0.60;0.60;;;15.90;99.90;;;;;;5035661;28;20208;-83
2022/05/23 06:00:37;;;;;;;8.03;0.70;;;16.00;99.90;;;;;;5033254;28;20211;-84
2022/05/23 06:03:03;;;;;;;0.37;0.37;;;15.80;99.90;;;;;;5050761;28;20176;-83
2022/05/23 06:05:28;;;;;;;1.37;0.53;;;16.10;99.90;;;;;;5056640;28;20173;-83
2022/05/23 06:13:22;;;;;;;0.40;0.40;;;16.10;99.90;;;;;;5054026;28;20222;-83
2022/05/23 06:15:47;;;;;;;0.70;0.70;;;16.40;99.90;;;;;;5051405;28;20714;-83
2022/05/23 06:18:13;;;;;;;0.63;0.63;;;16.70;99.90;;;;;;5053596;28;20220;-84
2022/05/23 06:20:39;;;;;;;0.40;0.40;;;16.60;99.90;;;;;;5035879;28;20196;-80
2022/05/23 06:23:06;;;;;;;1.23;0.40;;;16.60;99.90;;;;;;5053212;28;20193;-80
2022/05/23 06:25:32;;;;;;;0.70;0.70;;;16.70;99.90;;;;;;5055732;28;20209;-82
2022/05/23 06:27:58;;;;;;;0.73;0.73;;;16.80;99.90;;;;;;5053071;28;20213;-82
2022/05/23 06:30:24;;;;;;;1.43;0.90;;;17.00;99.90;;;;;;5036240;28;20193;-82
2022/05/23 06:32:50;;;;;;;0.53;0.43;;;17.20;99.90;;;;;;5035756;28;20676;-82
2022/05/23 06:35:16;;;;;;;0.47;0.47;;;17.60;99.90;;;;;;5034594;28;20189;-82
2022/05/23 06:37:43;;;;;;;0.37;0.37;;;17.60;99.90;;;;;;5049097;28;20213;-83
2022/05/23 06:40:12;;;;;;;0.50;0.50;;;18.10;99.90;;;;;;5035148;28;20587;-83
2022/05/23 06:42:38;;;;;;;0.43;0.40;;;18.10;99.90;;;;;;5032448;28;20192;-82
2022/05/23 06:45:05;;;;;;;0.17;0.17;;;18.10;99.90;;;;;;5052792;28;20182;-82
2022/05/23 06:47:31;;;;;;;0.40;0.40;;;18.70;99.90;;;;;;5055057;28;20206;-83
2022/05/23 06:49:56;;;;;;;0.50;0.50;;;19.20;99.90;;;;;;5037785;28;20671;-83
2022/05/23 06:52:22;;;;;;;0.50;0.50;;;18.90;99.90;;;;;;5055843;28;20181;-83
2022/05/23 06:54:48;;;;;;;0.60;0.60;;;19.00;99.90;;;;;;5038169;28;20242;-83
2022/05/23 06:57:14;;;;;;;0.43;0.43;;;18.80;99.90;;;;;;5037249;28;20692;-83
2022/05/23 06:59:39;;;;;;;0.87;0.83;;;18.70;99.90;;;;;;5038147;28;20212;-82
2022/05/23 07:02:07;;;;;;;0.40;0.40;;;18.50;99.90;;;;;;5055853;28;20184;-83
2022/05/23 07:12:51;;;;;;;0.83;0.70;;;18.70;99.90;;;;;;5056239;28;20192;-83
2022/05/23 07:15:16;;;;;;;0.93;0.50;;;18.80;99.90;;;;;;5056483;28;20272;-83
2022/05/23 07:17:42;;;;;;;8.27;0.67;;;19.20;99.90;;;;;;5037598;28;20200;-83
2022/05/23 07:20:08;;;;;;;0.90;0.70;;;19.40;99.90;;;;;;5037252;28;20204;-83
2022/05/23 07:22:34;;;;;;;0.43;0.43;;;19.60;99.90;;;;;;5053257;28;20178;-82
2022/05/23 07:25:01;;;;;;;0.90;0.90;;;19.50;99.90;;;;;;5055642;28;20177;-83
2022/05/23 07:27:28;;;;;;;0.50;0.50;;;20.00;99.90;;;;;;5038486;28;20192;-83
2022/05/23 07:29:54;;;;;;;3.60;0.70;;;20.60;99.90;;;;;;5055775;28;20196;-83
2022/05/23 07:32:19;;;;;;;0.50;0.50;;;20.80;99.90;;;;;;5055285;28;21223;-83
2022/05/23 07:34:45;;;;;;;0.43;0.43;;;20.40;99.90;;;;;;5054679;28;20193;-83
2022/05/23 07:37:11;;;;;;;1.07;0.77;;;20.20;99.90;;;;;;5036941;28;20215;-83
2022/05/23 07:39:39;;;;;;;1.20;1.10;;;20.40;99.90;;;;;;5037904;28;21160;-83
2022/05/23 07:42:06;;;;;;;1.27;0.83;;;20.20;99.90;;;;;;5054200;28;20184;-83
2022/05/23 07:44:33;;;;;;;0.93;0.77;;;20.90;99.90;;;;;;5066666;28;20181;-83
2022/05/23 07:46:58;;;;;;;0.30;0.30;;;21.40;99.90;;;;;;5033270;28;20736;-82
2022/05/23 07:49:24;;;;;;;0.73;0.67;;;21.60;99.90;;;;;;5068673;28;20280;-83
2022/05/23 07:51:50;;;;;;;1.00;0.90;;;22.20;99.90;;;;;;5028874;28;20221;-83
2022/05/23 08:02:28;;;;;;;0.43;0.43;;;22.50;99.90;;;;;;5059830;28;20221;-82
2022/05/23 08:04:54;;;;;;;0.40;0.33;;;22.50;99.90;;;;;;5036821;28;20178;-82
2022/05/23 08:07:20;;;;;;;0.20;0.20;;;22.70;99.90;;;;;;5054673;28;20201;-83
2022/05/23 08:09:45;;;;;;;0.77;0.77;;;23.30;99.90;;;;;;5038537;28;21174;-83
2022/05/23 08:12:14;;;;;;;0.60;0.60;;;23.50;99.90;;;;;;5059114;28;20185;-82
2022/05/23 08:14:39;;;;;;;0.50;0.50;;;23.40;99.90;;;;;;5038569;28;20209;-83
2022/05/23 08:17:05;;;;;;;0.57;0.57;;;23.30;99.90;;;;;;5037943;28;20591;-83
2022/05/23 08:19:31;;;;;;;3.47;1.47;;;22.60;99.90;;;;;;5053829;28;20562;-83
2022/05/23 08:21:59;;;;;;;0.33;0.33;;;22.00;99.90;;;;;;5036451;28;20210;-82
2022/05/23 08:24:24;;;;;;;0.60;0.60;;;21.70;99.90;;;;;;5054281;28;20177;-82
2022/05/23 08:26:50;;;;;;;0.50;0.50;;;22.00;99.90;;;;;;5054557;28;20578;-84
2022/05/23 08:29:16;;;;;;;1.07;0.97;;;22.20;99.90;;;;;;5035940;28;20189;-83
2022/05/23 08:31:42;;;;;;;0.57;0.57;;;22.00;99.90;;;;;;5033794;28;20196;-83
2022/05/23 08:34:08;;;;;;;1.37;0.70;;;22.20;99.90;;;;;;5068101;28;20188;-82
2022/05/23 08:36:34;;;;;;;0.50;0.40;;;21.90;99.90;;;;;;5052768;28;20860;-82
2022/05/23 08:39:00;;;;;;;0.40;0.40;;;22.60;99.90;;;;;;5052796;28;20209;-82
2022/05/23 08:41:39;;;;;;;0.60;0.60;;;23.20;99.90;;;;;;5052655;28;20196;-82
2022/05/23 08:44:16;;;;;;;0.93;0.70;;;22.90;99.90;;;;;;5052230;28;20272;-82
2022/05/23 08:46:48;;;;;;;0.53;0.53;;;22.90;99.90;;;;;;5051932;28;20201;-83
2022/05/23 08:49:33;;;;;;;0.53;0.53;;;22.50;99.90;;;;;;5036115;28;20193;-83
2022/05/23 08:52:08;;;;;;;0.63;0.63;;;23.40;99.90;;;;;;5053619;28;20764;-83
2022/05/23 08:55:14;;;;;;;0.57;0.57;;;23.60;99.90;;;;;;5035416;28;20174;-83
2022/05/23 08:58:07;;;;;;;0.87;0.70;;;23.60;99.90;;;;;;5003697;28;20220;-83
2022/05/23 09:00:45;;;;;;;0.63;0.40;;;23.30;99.90;;;;;;5039453;28;20220;-83
2022/05/23 09:03:30;;;;;;;0.60;0.60;;;24.00;99.90;;;;;;5055702;28;20188;-83
2022/05/23 09:06:09;;;;;;;0.43;0.43;;;24.40;99.90;;;;;;5069806;28;20269;-83
2022/05/23 09:08:47;;;;;;;1.00;1.00;;;24.60;99.90;;;;;;5054185;28;20212;-82
2022/05/23 09:11:41;;;;;;;1.07;0.70;;;24.80;99.90;;;;;;5054994;28;20190;-83
2022/05/23 09:14:08;;;;;;;1.10;1.00;;;24.90;99.90;;;;;;5036848;28;20694;-82
2022/05/23 09:16:44;;;;;;;0.53;0.53;;;24.90;99.90;;;;;;5056258;28;20216;-83
2022/05/23 09:19:38;;;;;;;0.70;0.70;;;25.10;99.90;;;;;;5035275;28;20220;-83
2022/05/23 09:22:19;;;;;;;0.50;0.50;;;25.10;99.90;;;;;;5036562;28;20545;-83
2022/05/23 09:24:52;;;;;;;2.43;2.23;;;25.20;99.90;;;;;;5053826;28;20185;-83
2022/05/23 09:27:35;;;;;;;3.20;0.40;;;24.70;99.90;;;;;;5052930;28;20277;-83
2022/05/23 09:30:00;;;;;;;1.60;0.60;;;24.90;99.90;;;;;;5036829;28;20196;-83
2022/05/23 09:32:36;;;;;;;1.30;0.93;;;24.90;99.90;;;;;;5035744;28;20193;-84
2022/05/23 09:35:12;;;;;;;1.43;1.03;;;25.30;99.90;;;;;;5057484;28;20189;-83
2022/05/23 09:37:42;;;;;;;1.77;1.47;;;24.90;99.90;;;;;;5053485;28;20212;-83
2022/05/23 09:40:21;;;;;;;0.60;0.60;;;25.00;99.90;;;;;;5035563;28;20227;-83
2022/05/23 09:48:22;;;;;;;0.77;0.77;;;25.80;99.90;;;;;;5053856;28;20227;-83
2022/05/23 09:51:05;;;;;;;0.60;0.60;;;25.60;99.90;;;;;;5036589;28;20208;-83
2022/05/23 09:53:37;;;;;;;0.73;0.73;;;25.70;99.90;;;;;;5051287;28;20178;-83
2022/05/23 09:56:31;;;;;;;1.07;0.70;;;25.90;99.90;;;;;;5035305;28;20561;-83
2022/05/23 09:59:25;;;;;;;2.50;0.70;;;26.00;99.90;;;;;;5053162;28;20192;-83
2022/05/23 10:01:52;;;;;;;0.63;0.63;;;25.90;99.90;;;;;;5026162;28;20716;-83
2022/05/23 10:04:29;;;;;;;1.63;1.13;;;25.60;99.90;;;;;;5035803;28;20185;-83
2022/05/23 10:06:56;;;;;;;0.60;0.50;;;25.50;99.90;;;;;;5036013;28;20305;-83
2022/05/23 10:09:28;;;;;;;1.47;1.37;;;25.30;99.90;;;;;;5034389;28;20926;-83
2022/05/23 10:11:58;;;;;;;0.67;0.67;;;25.30;99.90;;;;;;5033044;28;20177;-83
2022/05/23 10:14:33;;;;;;;0.40;0.40;;;25.70;99.90;;;;;;5053373;28;20192;-83
2022/05/23 10:16:59;;;;;;;0.60;0.50;;;26.10;99.90;;;;;;5035588;28;20240;-83
2022/05/23 10:19:34;;;;;;;0.77;0.50;;;26.40;99.90;;;;;;5035852;28;20686;-83
2022/05/23 10:22:12;;;;;;;0.67;0.67;;;26.60;99.90;;;;;;5068320;28;20181;-83
2022/05/23 10:24:43;;;;;;;1.03;0.80;;;26.70;99.90;;;;;;5035898;28;20169;-83
2022/05/23 10:27:15;;;;;;;0.50;0.47;;;26.50;99.90;;;;;;5055283;28;20201;-83
2022/05/23 10:29:55;;;;;;;0.40;0.40;;;26.50;99.90;;;;;;5035115;28;20280;-83
2022/05/23 10:32:35;;;;;;;0.50;0.50;;;26.90;99.90;;;;;;5036456;28;21214;-84
2022/05/23 10:35:14;;;;;;;0.50;0.50;;;27.10;99.90;;;;;;5054590;28;20205;-83
2022/05/23 10:37:40;;;;;;;0.60;0.60;;;27.00;99.90;;;;;;5049410;28;20367;-83
2022/05/23 10:43:13;;;;;;;0.40;0.40;;;26.90;99.90;;;;;;5051213;28;20188;-84
2022/05/23 10:45:53;;;;;;;0.50;0.50;;;26.90;99.90;;;;;;5032844;28;20538;-83
2022/05/23 10:48:45;;;;;;;0.50;0.50;;;26.70;99.90;;;;;;5052595;28;20224;-83
2022/05/23 10:51:42;;;;;;;0.60;0.60;;;26.80;99.90;;;;;;5032108;28;20181;-83
2022/05/23 10:54:19;;;;;;;0.57;0.57;;;25.90;99.90;;;;;;5035619;28;20539;-83
2022/05/23 10:56:51;;;;;;;1.17;0.67;;;26.30;99.90;;;;;;5052469;28;20205;-83
2022/05/23 10:59:23;;;;;;;0.73;0.60;;;26.40;99.90;;;;;;5055224;28;20213;-83
2022/05/23 11:01:57;;;;;;;1.07;0.97;;;26.30;99.90;;;;;;5051538;28;20177;-83
2022/05/23 11:04:40;;;;;;;0.60;0.57;;;26.80;99.90;;;;;;5052626;28;20191;-83
2022/05/23 11:07:27;;;;;;;0.60;0.60;;;27.20;99.90;;;;;;5035982;28;20211;-83
2022/05/23 11:10:24;;;;;;;0.40;0.40;;;27.10;99.90;;;;;;5049384;28;20189;-83
2022/05/23 11:13:01;;;;;;;0.50;0.50;;;26.10;99.90;;;;;;5033939;28;20197;-83
2022/05/23 11:15:51;;;;;;;0.47;0.47;;;26.10;99.90;;;;;;5050086;28;20184;-83
2022/05/23 11:18:34;;;;;;;0.77;0.50;;;26.20;99.90;;;;;;5051899;28;20211;-83
2022/05/23 11:21:32;;;;;;;0.47;0.47;;;26.40;99.90;;;;;;5028597;28;20209;-83
2022/05/23 11:24:04;;;;;;;0.87;0.87;;;26.30;99.90;;;;;;5047322;28;20202;-83
2022/05/23 11:26:44;;;;;;;0.60;0.60;;;26.20;99.90;;;;;;5030418;28;20206;-83
2022/05/23 11:35:01;;;;;;;0.60;0.60;;;25.50;99.90;;;;;;5056994;28;20185;-83
2022/05/23 11:37:45;;;;;;;2.97;0.80;;;25.80;99.90;;;;;;5059163;28;20222;-83
2022/05/23 11:40:26;;;;;;;2.33;0.80;;;26.20;99.90;;;;;;5057998;28;21153;-83
2022/05/23 11:43:06;;;;;;;0.53;0.53;;;26.40;99.90;;;;;;5058099;28;20182;-83
2022/05/23 11:48:34;;;;;;;1.10;0.73;;;26.60;99.90;;;;;;5054642;28;20212;-83
2022/05/23 11:51:30;;;;;;;3.37;0.87;;;26.70;99.90;;;;;;5039992;28;20266;-83
2022/05/23 11:54:05;;;;;;;1.70;1.60;;;26.70;99.90;;;;;;5037145;28;20483;-83
2022/05/23 11:56:55;;;;;;;3.33;1.57;;;26.70;99.90;;;;;;5054779;28;20251;-83
2022/05/23 11:59:23;;;;;;;1.03;0.70;;;26.50;99.90;;;;;;5038747;28;20240;-83
2022/05/23 12:02:11;;;;;;;0.53;0.53;;;26.40;99.90;;;;;;5036458;28;20273;-83
2022/05/23 12:04:48;;;;;;;0.60;0.60;;;26.60;99.90;;;;;;5040271;28;20226;-83
2022/05/23 12:07:42;;;;;;;1.03;0.70;;;26.70;99.90;;;;;;5053360;28;20339;-83
2022/05/23 12:10:24;;;;;;;2.10;1.10;;;26.60;99.90;;;;;;5049171;28;20192;-83
2022/05/23 12:12:51;;;;;;;0.30;0.30;;;26.20;99.90;;;;;;5049409;28;20190;-83
2022/05/23 12:15:41;;;;;;;0.70;0.70;;;26.40;99.90;;;;;;5054258;28;20217;-84
2022/05/23 12:18:19;;;;;;;0.60;0.60;;;26.30;99.90;;;;;;5053897;28;20233;-83
2022/05/23 12:20:48;;;;;;;0.73;0.73;;;26.50;99.90;;;;;;5054848;28;20213;-83
2022/05/23 12:23:34;;;;;;;0.90;0.70;;;26.40;99.90;;;;;;5036567;28;20277;-83
2022/05/23 12:26:12;;;;;;;0.60;0.60;;;26.50;99.90;;;;;;5034496;28;20208;-83
2022/05/23 12:28:51;;;;;;;0.83;0.83;;;26.50;99.90;;;;;;5055122;28;20232;-83
2022/05/23 12:31:19;;;;;;;0.90;0.63;;;26.40;99.90;;;;;;5055334;28;20169;-83
2022/05/23 12:34:08;;;;;;;0.60;0.60;;;26.40;99.90;;;;;;5056315;28;20209;-81
2022/05/23 12:36:49;;;;;;;0.77;0.77;;;26.50;99.90;;;;;;5038504;28;20205;-80
2022/05/23 12:39:53;;;;;;;2.37;1.07;;;26.50;99.90;;;;;;5056233;28;20204;-81
2022/05/23 12:42:35;;;;;;;0.57;0.53;;;26.50;99.90;;;;;;5055063;28;20181;-81
2022/05/23 12:45:34;;;;;;;0.60;0.60;;;26.50;99.90;;;;;;5034819;28;20181;-81
2022/05/23 12:48:28;;;;;;;0.53;0.53;;;26.40;99.90;;;;;;4997520;28;20208;-81
2022/05/23 12:51:12;;;;;;;1.93;1.67;;;26.00;99.90;;;;;;5054373;28;20197;-80
2022/05/23 12:53:47;;;;;;;1.03;0.60;;;25.90;99.90;;;;;;5037251;28;20182;-81
2022/05/23 12:56:21;;;;;;;0.83;0.53;;;26.00;99.90;;;;;;5053804;28;20264;-81
2022/05/23 12:59:10;;;;;;;0.70;0.70;;;25.70;99.90;;;;;;5037745;28;20220;-81
2022/05/23 13:01:38;;;;;;;0.83;0.83;;;25.80;99.90;;;;;;5033297;28;20634;-81
2022/05/23 13:04:13;;;;;;;1.10;1.10;;;25.90;99.90;;;;;;5051849;28;20190;-80
2022/05/23 13:07:13;;;;;;;0.73;0.73;;;25.90;99.90;;;;;;5051452;28;20234;-81
2022/05/23 13:09:59;;;;;;;0.60;0.60;;;25.90;99.90;;;;;;5023760;28;20217;-81
2022/05/23 13:12:52;;;;;;;0.50;0.50;;;25.70;99.90;;;;;;5055366;28;20186;-80
2022/05/23 13:15:27;;;;;;;1.03;0.63;;;25.70;99.90;;;;;;5024957;28;20222;-80
2022/05/23 13:17:53;;;;;;;1.13;0.63;;;25.80;99.90;;;;;;5055669;28;20205;-80
2022/05/23 13:23:23;;;;;;;0.50;0.50;;;25.90;99.90;;;;;;5055482;28;20177;-81
2022/05/23 13:25:49;;;;;;;0.90;0.70;;;25.80;99.90;;;;;;5035970;28;20574;-80
2022/05/23 13:28:16;;;;;;;0.60;0.60;;;25.80;99.90;;;;;;5038659;28;20205;-80
2022/05/23 13:30:50;;;;;;;0.50;0.50;;;26.00;99.90;;;;;;5036219;28;20209;-80
2022/05/23 13:33:31;;;;;;;5.80;0.70;;;26.20;99.90;;;;;;5037142;28;20202;-80
2022/05/23 13:36:05;;;;;;;1.43;0.73;;;26.30;99.90;;;;;;5035044;28;20249;-80
2022/05/23 13:38:33;;;;;;;0.50;0.50;;;26.20;99.90;;;;;;5036472;28;20213;-81
2022/05/23 13:41:04;;;;;;;1.03;0.87;;;26.30;99.90;;;;;;5036275;28;20304;-80
2022/05/23 13:43:41;;;;;;;0.70;0.70;;;26.00;99.90;;;;;;5051976;28;20182;-80
2022/05/23 13:46:37;;;;;;;0.60;0.60;;;26.10;99.90;;;;;;5053606;28;20185;-80
2022/05/23 13:49:33;;;;;;;0.90;0.90;;;26.40;99.90;;;;;;5050660;28;20229;-83
2022/05/23 13:52:03;;;;;;;0.60;0.60;;;26.70;99.90;;;;;;5037292;28;20389;-83
2022/05/23 13:54:40;;;;;;;1.40;0.70;;;27.00;99.90;;;;;;5054870;28;20177;-83
2022/05/23 13:57:18;;;;;;;0.77;0.77;;;27.40;99.90;;;;;;5032754;28;20212;-82
2022/05/23 14:00:12;;;;;;;0.98;0.98;;;27.60;99.90;;;;;;5035011;28;20212;-83
2022/05/23 14:02:46;;;;;;;1.30;1.20;;;27.60;99.90;;;;;;5034252;28;20182;-83
2022/05/23 14:05:12;;;;;;;1.33;1.33;;;27.60;99.90;;;;;;5066348;28;20177;-83
2022/05/23 14:07:41;;;;;;;0.77;0.60;;;27.60;99.90;;;;;;5055334;28;20193;-82
2022/05/23 14:10:10;;;;;;;0.90;0.90;;;27.70;99.90;;;;;;5035621;28;20285;-83
2022/05/23 14:12:39;;;;;;;1.20;1.13;;;27.70;99.90;;;;;;5050856;28;20758;-83
2022/05/23 14:15:10;;;;;;;0.60;0.60;;;27.70;99.90;;;;;;5068680;28;20190;-83
2022/05/23 14:17:54;;;;;;;1.33;0.80;;;27.60;99.90;;;;;;5055503;28;20205;-83